createdAt,value
2023-05-11T00:02:19.854Z,13.98
2023-05-11T00:07:10.220Z,13.50
2023-05-11T00:12:03.006Z,14.50
2023-05-11T00:16:52.990Z,16.13
2023-05-11T00:21:42.987Z,16.40
2023-05-11T00:26:33.098Z,15.80
2023-05-11T00:31:26.533Z,17.38
2023-05-11T00:36:18.128Z,17.95
2023-05-11T00:41:08.446Z,18.38
2023-05-11T00:45:58.306Z,18.85
2023-05-11T00:50:51.676Z,19.45
2023-05-11T00:55:42.430Z,19.90
2023-05-11T01:00:32.362Z,20.92
2023-05-11T01:05:22.469Z,21.67
2023-05-11T01:10:27.051Z,23.10
2023-05-11T01:15:23.734Z,21.70
2023-05-11T01:20:21.439Z,22.63
2023-05-11T01:25:35.756Z,21.38
2023-05-11T01:30:32.435Z,22.60
2023-05-11T01:35:26.129Z,22.98
2023-05-11T01:40:20.004Z,22.77
2023-05-11T01:45:13.620Z,23.23
2023-05-11T01:50:09.362Z,22.80
2023-05-11T01:55:03.554Z,22.93
2023-05-11T01:59:56.644Z,23.10
2023-05-11T02:04:49.739Z,22.97
2023-05-11T02:09:43.753Z,23.58
2023-05-11T02:14:36.881Z,23.90
2023-05-11T02:19:27.522Z,22.27
2023-05-11T02:24:18.769Z,24.40
2023-05-11T02:29:11.818Z,23.73
2023-05-11T02:34:11.793Z,24.15
2023-05-11T02:39:08.853Z,23.92
2023-05-11T02:44:06.997Z,24.42
2023-05-11T02:49:05.915Z,22.60
2023-05-11T02:54:00.877Z,23.83
2023-05-11T02:58:54.345Z,23.70
2023-05-11T03:03:48.626Z,25.33
2023-05-11T03:08:42.186Z,24.92
2023-05-11T03:13:34.463Z,25.08
2023-05-11T03:18:28.805Z,24.90
2023-05-11T03:23:20.598Z,25.33
2023-05-11T03:28:14.226Z,25.05
2023-05-11T03:33:10.582Z,23.80
2023-05-11T03:38:02.515Z,24.67
2023-05-11T03:52:38.977Z,21.33
2023-05-11T03:57:29.743Z,19.63
2023-05-11T04:02:21.970Z,19.73
2023-05-11T04:07:15.345Z,21.83
2023-05-11T04:12:05.258Z,22.70
2023-05-11T04:16:55.616Z,23.95
2023-05-11T04:21:47.060Z,24.97
2023-05-11T04:26:43.098Z,24.15
2023-05-11T04:31:33.279Z,22.10
2023-05-11T04:36:25.297Z,23.90
2023-05-11T04:41:15.518Z,22.27
2023-05-11T04:46:08.568Z,23.67
2023-05-11T04:50:59.333Z,25.27
2023-05-11T04:56:07.995Z,24.92
2023-05-11T05:01:03.236Z,27.33
2023-05-11T05:06:12.453Z,27.63
2023-05-11T05:11:14.542Z,28.02
2023-05-11T05:16:19.426Z,28.35
2023-05-11T05:21:25.199Z,28.30
2023-05-11T05:26:15.881Z,28.13
2023-05-11T05:31:12.428Z,26.38
2023-05-11T05:36:05.016Z,26.08
2023-05-11T05:41:00.191Z,26.45
2023-05-11T05:45:53.832Z,26.38
2023-05-11T05:50:43.973Z,26.43
2023-05-11T05:55:34.789Z,25.35
2023-05-11T06:00:29.851Z,26.73
2023-05-11T06:05:26.886Z,25.95
2023-05-11T06:10:17.605Z,26.02
2023-05-11T06:15:11.618Z,24.13
2023-05-11T06:20:07.649Z,25.53
2023-05-11T06:24:58.322Z,25.77
2023-05-11T06:29:50.755Z,23.23
2023-05-11T06:34:41.030Z,22.53
2023-05-11T06:39:38.453Z,20.95
2023-05-11T06:44:31.524Z,19.40
2023-05-11T06:49:21.790Z,18.90
2023-05-11T06:54:11.677Z,19.00
2023-05-11T06:59:04.230Z,21.90
2023-05-11T07:03:57.403Z,21.05
2023-05-11T07:08:47.200Z,22.90
2023-05-11T07:13:40.649Z,23.70
2023-05-11T07:18:33.145Z,23.00
2023-05-11T07:23:22.977Z,24.42
2023-05-11T07:28:12.929Z,23.67
2023-05-11T07:33:03.166Z,23.52
2023-05-11T07:37:55.891Z,19.30
2023-05-11T07:42:46.240Z,19.65
2023-05-11T07:47:37.008Z,18.23
2023-05-11T07:52:27.193Z,20.58
2023-05-11T07:57:19.716Z,28.07
2023-05-11T08:02:12.921Z,27.52
2023-05-11T08:07:05.550Z,27.65
2023-05-11T08:11:56.827Z,27.45
2023-05-11T08:16:49.938Z,20.60
2023-05-11T08:21:40.023Z,21.70
2023-05-11T08:26:30.153Z,23.15
2023-05-11T08:31:20.056Z,23.20
2023-05-11T08:36:13.471Z,22.83
2023-05-11T08:41:05.208Z,20.83
2023-05-11T08:45:59.938Z,23.52
2023-05-11T08:50:50.351Z,21.23
2023-05-11T09:15:10.673Z,22.27
2023-05-11T09:20:05.547Z,20.05
2023-05-11T09:24:55.997Z,22.42
2023-05-11T09:29:51.785Z,21.20
2023-05-11T09:34:44.801Z,21.55
2023-05-11T09:39:44.703Z,22.70
2023-05-11T09:44:46.736Z,19.50
2023-05-11T09:49:36.796Z,22.13
2023-05-11T09:54:29.428Z,25.20
2023-05-11T09:59:20.497Z,22.05
2023-05-11T10:04:23.084Z,23.45
2023-05-11T10:09:15.356Z,23.42
2023-05-11T10:14:10.212Z,23.43
2023-05-11T10:19:00.538Z,21.63
2023-05-11T10:23:50.900Z,24.60
2023-05-11T10:28:41.820Z,25.88
2023-05-11T10:33:35.507Z,26.65
2023-05-11T10:38:27.473Z,28.40
2023-05-11T10:43:41.946Z,28.17
2023-05-11T10:49:02.666Z,26.67
2023-05-11T10:54:17.270Z,20.75
2023-05-11T10:59:41.036Z,18.45
2023-05-11T11:04:46.691Z,20.73
2023-05-11T11:09:54.935Z,18.15
2023-05-11T11:14:58.819Z,18.08
2023-05-11T11:19:51.786Z,15.02
2023-05-11T11:24:49.518Z,16.43
2023-05-11T11:29:40.657Z,14.43
2023-05-11T11:34:39.637Z,14.33
2023-05-11T11:39:32.841Z,12.15
2023-05-11T11:44:31.580Z,13.02
2023-05-11T21:28:28.720Z,8.18
2023-05-11T21:33:18.688Z,8.02
2023-05-11T21:38:08.671Z,8.35
2023-05-11T21:43:01.349Z,7.32
2023-05-11T21:47:52.436Z,5.85
2023-05-11T21:52:43.412Z,5.18
2023-05-11T21:57:33.498Z,5.95
2023-05-11T22:02:26.668Z,6.35
2023-05-11T22:07:17.791Z,5.63
